LEPA/PMI METAR and TAF weather

Enter ICAO airport designator
Station Type Date Time Source
LEPA METAR 2022/10/01 07:30 UTC NOAA

LEPA 010730Z VRB01KT 9999 FEW030 16/13 Q1024 NOSIG


Station Type Date Time Source
LEPA Decoded METAR 2022/10/01 07:30 UTC NOAA

Palma De Mallorca / Son San Juan, Spain (LEPA) 39-33N 002-44E 8M
Oct 01, 2022 - 03:30 AM EDT / 2022.10.01 0730 UTC
Wind: Variable at 1 MPH (1 KT):0
Visibility: greater than 7 mile(s):0
Sky conditions: mostly clear
Temperature: 60 F (16 C)
Dew Point: 55 F (13 C)
Relative Humidity: 82%
Pressure (altimeter): 30.24 in. Hg (1024 hPa)
ob: LEPA 010730Z VRB01KT 9999 FEW030 16/13 Q1024 NOSIG
cycle: 7

Station Type Date Time Source
LEPA TAF 2022/10/01 06:27 UTC NOAA

TAF LEPA 010500Z 0106/0206 05004KT 9999 FEW040 TX24/0112Z TN15/0106Z PROB30
TEMPO 0106/0109 FEW040TCU
BECMG 0108/0110 24010KT
BECMG 0118/0120 05004KT

Example: see airport list